createdAt,value
2022-09-29T00:00:38.683Z,16.99
2022-09-29T00:03:07.347Z,16.86
2022-09-29T00:05:36.722Z,16.80
2022-09-29T00:08:04.790Z,16.76
2022-09-29T00:10:32.705Z,16.78
2022-09-29T00:13:00.707Z,16.75
2022-09-29T00:15:28.760Z,16.70
2022-09-29T00:18:13.150Z,16.61
2022-09-29T00:20:43.284Z,16.51
2022-09-29T00:23:11.211Z,16.31
2022-09-29T00:25:39.174Z,16.05
2022-09-29T00:28:07.098Z,16.10
2022-09-29T00:30:35.014Z,16.00
2022-09-29T00:33:02.905Z,15.88
2022-09-29T00:35:30.848Z,16.03
2022-09-29T00:38:00.295Z,16.03
2022-09-29T00:40:28.309Z,15.99
2022-09-29T00:42:56.270Z,16.06
2022-09-29T00:45:25.431Z,16.05
2022-09-29T00:48:04.960Z,15.81
2022-09-29T00:50:43.042Z,16.10
2022-09-29T00:53:20.613Z,16.17
2022-09-29T00:55:52.860Z,16.13
2022-09-29T00:58:29.369Z,16.16
2022-09-29T01:00:57.350Z,16.11
2022-09-29T01:03:29.045Z,15.95
2022-09-29T01:06:00.964Z,15.89
2022-09-29T01:08:36.363Z,15.91
2022-09-29T01:11:06.181Z,15.81
2022-09-29T01:13:35.705Z,15.79
2022-09-29T01:16:04.605Z,16.01
2022-09-29T01:18:33.108Z,15.90
2022-09-29T01:21:11.718Z,15.93
2022-09-29T01:24:10.082Z,15.86
2022-09-29T01:27:03.554Z,15.83
2022-09-29T01:30:10.243Z,16.00
2022-09-29T01:32:54.222Z,15.99
2022-09-29T01:35:28.278Z,15.93
2022-09-29T01:38:13.389Z,15.95
2022-09-29T01:40:50.786Z,16.03
2022-09-29T01:43:22.236Z,16.08
2022-09-29T01:45:58.261Z,15.98
2022-09-29T01:48:33.957Z,15.83
2022-09-29T01:51:08.403Z,15.78
2022-09-29T01:53:39.710Z,15.76
2022-09-29T01:56:12.716Z,15.74
2022-09-29T01:58:46.535Z,15.74
2022-09-29T02:01:16.427Z,15.73
2022-09-29T02:03:51.650Z,15.88
2022-09-29T02:06:23.744Z,15.99
2022-09-29T02:08:54.754Z,16.05
2022-09-29T02:11:23.253Z,16.16
2022-09-29T02:13:54.600Z,16.16
2022-09-29T02:16:26.719Z,16.17
2022-09-29T02:18:58.907Z,16.22
2022-09-29T02:21:29.010Z,16.16
2022-09-29T02:23:57.633Z,16.18
2022-09-29T02:26:26.992Z,16.10
2022-09-29T02:28:56.074Z,16.17
2022-09-29T02:31:24.959Z,16.20
2022-09-29T02:33:52.924Z,16.11
2022-09-29T02:36:35.228Z,16.03
2022-09-29T02:39:07.436Z,16.03
2022-09-29T02:41:42.758Z,16.09
2022-09-29T02:44:38.744Z,16.16
2022-09-29T02:47:20.929Z,16.14
2022-09-29T02:50:06.883Z,16.14
2022-09-29T02:52:45.597Z,16.20
2022-09-29T02:55:20.691Z,16.20
2022-09-29T02:57:53.990Z,16.20
2022-09-29T03:00:22.642Z,16.17
2022-09-29T03:02:50.572Z,16.04
2022-09-29T03:05:20.821Z,15.80
2022-09-29T03:07:50.377Z,15.61
2022-09-29T03:10:19.152Z,15.18
2022-09-29T03:12:47.897Z,15.22
2022-09-29T03:15:16.001Z,15.35
2022-09-29T03:17:43.923Z,15.44
2022-09-29T03:20:11.888Z,15.44
2022-09-29T03:22:39.891Z,15.51
2022-09-29T03:25:10.206Z,15.56
2022-09-29T03:27:38.540Z,15.57
2022-09-29T03:30:07.586Z,15.56
2022-09-29T03:32:35.523Z,15.56
2022-09-29T03:35:03.433Z,15.46
2022-09-29T03:37:31.385Z,15.34
2022-09-29T03:39:59.277Z,15.42
2022-09-29T03:42:28.670Z,15.33
2022-09-29T03:44:56.712Z,15.35
2022-09-29T03:47:24.621Z,15.44
2022-09-29T03:49:52.586Z,15.45
2022-09-29T03:52:20.534Z,15.48
2022-09-29T03:54:48.450Z,15.50
2022-09-29T03:57:16.536Z,15.46
2022-09-29T03:59:46.023Z,15.40
2022-09-29T04:02:14.572Z,15.40
2022-09-29T04:04:42.565Z,15.41
2022-09-29T04:07:10.483Z,15.33
2022-09-29T04:09:38.703Z,15.23
2022-09-29T04:12:06.854Z,15.31
2022-09-29T04:14:34.813Z,15.34
2022-09-29T04:17:04.153Z,15.35
2022-09-29T04:19:32.121Z,15.39
2022-09-29T04:22:00.041Z,15.37
2022-09-29T04:24:28.129Z,15.20
2022-09-29T04:26:56.025Z,15.14
2022-09-29T04:29:23.942Z,15.13
2022-09-29T04:31:51.947Z,15.25
2022-09-29T04:34:21.312Z,15.36
2022-09-29T04:36:49.326Z,15.44
2022-09-29T04:39:17.262Z,15.49
2022-09-29T04:41:46.083Z,15.56
2022-09-29T04:44:14.088Z,15.60
2022-09-29T04:46:42.459Z,15.60
2022-09-29T04:49:10.538Z,15.70
2022-09-29T04:51:39.843Z,15.71
2022-09-29T04:54:07.736Z,15.73
2022-09-29T04:56:35.662Z,15.82
2022-09-29T04:59:03.587Z,15.97
2022-09-29T05:01:31.946Z,16.06
2022-09-29T05:03:59.879Z,16.18
2022-09-29T05:06:27.797Z,16.29
2022-09-29T05:08:57.142Z,16.50
2022-09-29T05:11:25.056Z,16.64
2022-09-29T05:13:52.988Z,16.93
2022-09-29T05:16:20.994Z,17.11
2022-09-29T05:18:48.934Z,17.35
2022-09-29T05:21:27.783Z,17.52
2022-09-29T05:23:58.282Z,17.68
2022-09-29T05:26:26.695Z,17.72
2022-09-29T05:28:54.622Z,17.89
2022-09-29T05:31:22.596Z,17.99
2022-09-29T05:33:50.552Z,18.01
2022-09-29T05:36:18.469Z,18.24
2022-09-29T05:38:46.362Z,18.32
2022-09-29T05:41:17.153Z,18.39
2022-09-29T05:43:45.050Z,18.38
2022-09-29T05:46:13.022Z,18.46
2022-09-29T05:48:40.973Z,18.57
2022-09-29T05:51:10.954Z,18.82
2022-09-29T05:53:39.482Z,19.06
2022-09-29T05:56:08.766Z,19.25
2022-09-29T05:58:40.054Z,19.43
2022-09-29T06:01:08.795Z,19.46
2022-09-29T06:03:38.029Z,19.56
2022-09-29T06:06:07.660Z,19.55
2022-09-29T06:08:36.015Z,19.58
2022-09-29T06:11:06.389Z,19.60
2022-09-29T06:13:35.086Z,19.59
2022-09-29T06:16:04.590Z,19.59
2022-09-29T06:18:32.855Z,19.64
2022-09-29T06:21:04.694Z,19.62
2022-09-29T06:23:33.058Z,19.67
2022-09-29T06:26:04.565Z,19.69
2022-09-29T06:28:33.533Z,19.71
2022-09-29T06:31:03.290Z,19.87
2022-09-29T06:33:34.289Z,19.81
2022-09-29T06:36:22.445Z,19.94
2022-09-29T06:38:50.650Z,19.98
2022-09-29T06:41:19.531Z,20.12
2022-09-29T06:43:47.505Z,20.12
2022-09-29T06:46:15.462Z,20.15
2022-09-29T06:48:45.999Z,20.15
2022-09-29T06:51:14.850Z,20.22
2022-09-29T06:53:42.834Z,20.35
2022-09-29T06:56:10.801Z,20.51
2022-09-29T06:58:39.574Z,20.60
2022-09-29T07:01:08.131Z,20.72
2022-09-29T07:03:36.450Z,21.02
2022-09-29T07:06:22.377Z,21.14
2022-09-29T07:08:55.392Z,21.53
2022-09-29T07:11:23.493Z,21.59
2022-09-29T07:13:54.411Z,21.90
2022-09-29T07:16:24.195Z,22.09
2022-09-29T07:18:52.967Z,22.45
2022-09-29T07:21:22.767Z,22.42
2022-09-29T07:23:51.127Z,22.60
2022-09-29T07:26:19.480Z,22.78
2022-09-29T07:28:48.652Z,22.91
2022-09-29T07:31:18.685Z,23.06
2022-09-29T07:33:48.751Z,23.22
2022-09-29T07:36:19.107Z,23.30
2022-09-29T07:38:49.429Z,23.54
2022-09-29T07:41:18.425Z,23.75
2022-09-29T07:43:46.359Z,24.07
2022-09-29T07:46:14.710Z,24.16
2022-09-29T07:48:42.714Z,24.21
2022-09-29T07:51:13.291Z,24.39
2022-09-29T07:53:41.734Z,24.57
2022-09-29T07:56:12.959Z,24.70
2022-09-29T07:58:42.195Z,24.76
2022-09-29T08:01:12.931Z,24.83
2022-09-29T08:03:42.503Z,25.01
2022-09-29T08:06:12.223Z,24.99
2022-09-29T08:08:44.022Z,25.05
2022-09-29T08:11:30.365Z,25.08
2022-09-29T08:13:59.404Z,25.21
2022-09-29T08:16:27.486Z,25.16
2022-09-29T08:18:55.536Z,25.29
2022-09-29T08:21:23.867Z,25.28
2022-09-29T08:23:51.801Z,25.36
2022-09-29T08:26:34.216Z,25.25
2022-09-29T08:29:09.167Z,25.22
2022-09-29T08:31:38.920Z,25.26
2022-09-29T08:34:07.843Z,25.18
2022-09-29T08:36:36.767Z,25.16
2022-09-29T08:39:05.202Z,25.08
2022-09-29T08:41:50.715Z,25.21
2022-09-29T08:44:35.026Z,25.39
2022-09-29T08:47:15.801Z,25.54
2022-09-29T08:49:48.190Z,25.75
2022-09-29T08:52:20.354Z,25.89
2022-09-29T08:54:51.175Z,26.00
2022-09-29T08:57:21.657Z,26.05
2022-09-29T08:59:55.673Z,25.92
2022-09-29T09:02:56.328Z,25.98
2022-09-29T09:05:48.019Z,26.25
2022-09-29T09:08:28.797Z,26.36
2022-09-29T09:11:06.575Z,26.57
2022-09-29T09:13:51.599Z,26.64
2022-09-29T09:16:33.809Z,26.63
2022-09-29T09:19:22.471Z,26.77
2022-09-29T09:22:00.193Z,26.67
2022-09-29T09:24:34.302Z,26.68
2022-09-29T09:27:02.495Z,26.77
2022-09-29T09:29:38.041Z,26.89
2022-09-29T09:32:10.559Z,26.80
2022-09-29T09:34:45.354Z,26.78
2022-09-29T09:37:18.296Z,26.79
2022-09-29T09:39:50.709Z,26.83
2022-09-29T09:42:22.741Z,26.77
2022-09-29T09:44:58.086Z,26.84
2022-09-29T09:47:28.152Z,26.80
2022-09-29T09:50:01.026Z,26.87
2022-09-29T09:52:34.876Z,26.94
2022-09-29T09:55:05.635Z,26.75
2022-09-29T09:57:56.435Z,26.71
2022-09-29T10:00:30.194Z,26.74
2022-09-29T10:03:02.747Z,26.70
2022-09-29T10:05:37.759Z,26.51
2022-09-29T10:08:07.007Z,26.61
2022-09-29T10:10:35.114Z,26.67
2022-09-29T10:13:06.381Z,26.75
2022-09-29T10:15:42.467Z,26.78
2022-09-29T10:18:15.090Z,26.77
2022-09-29T10:20:43.030Z,26.84
2022-09-29T10:23:35.555Z,26.87
2022-09-29T10:26:09.890Z,26.92
2022-09-29T10:28:45.686Z,26.94
2022-09-29T10:31:20.171Z,27.02
2022-09-29T10:33:52.389Z,27.16
2022-09-29T10:36:21.954Z,27.28
2022-09-29T10:38:51.722Z,27.43
2022-09-29T10:41:20.577Z,27.35
2022-09-29T10:43:52.923Z,27.23
2022-09-29T10:46:48.490Z,27.48
2022-09-29T10:49:18.019Z,27.74
2022-09-29T10:52:03.533Z,27.65
2022-09-29T10:54:34.715Z,27.74
2022-09-29T10:57:13.865Z,27.61
2022-09-29T10:59:48.374Z,27.69
2022-09-29T11:02:25.272Z,27.65
2022-09-29T11:04:56.053Z,27.81
2022-09-29T11:07:24.053Z,27.89
2022-09-29T11:09:54.935Z,27.96
2022-09-29T11:12:39.041Z,27.79
2022-09-29T11:15:26.180Z,27.77
2022-09-29T11:17:56.710Z,27.73
2022-09-29T11:20:33.529Z,27.65
2022-09-29T11:23:14.483Z,27.67
2022-09-29T11:26:07.594Z,27.76
2022-09-29T11:28:50.479Z,27.71
2022-09-29T11:31:40.927Z,27.91
2022-09-29T11:34:32.673Z,27.80
2022-09-29T11:37:10.707Z,27.71
2022-09-29T11:39:48.149Z,27.46
2022-09-29T11:42:33.223Z,27.44
2022-09-29T11:45:03.564Z,27.50
2022-09-29T11:47:59.807Z,27.46
2022-09-29T11:50:35.506Z,27.64
2022-09-29T11:53:15.382Z,27.66
2022-09-29T11:56:05.752Z,27.57
2022-09-29T11:58:49.097Z,27.62
2022-09-29T12:01:27.947Z,27.65
2022-09-29T12:04:11.478Z,27.70
2022-09-29T12:06:57.672Z,27.54
2022-09-29T12:09:55.296Z,27.54
2022-09-29T12:12:33.801Z,27.46
2022-09-29T12:15:22.543Z,27.48
2022-09-29T12:17:55.892Z,27.44
2022-09-29T12:20:27.271Z,27.40
2022-09-29T12:23:01.098Z,27.21
2022-09-29T12:25:31.995Z,27.23
2022-09-29T12:28:04.137Z,27.21
2022-09-29T12:30:45.940Z,26.90
2022-09-29T12:33:21.720Z,27.00
2022-09-29T12:35:59.127Z,26.88
2022-09-29T12:38:36.271Z,26.81
2022-09-29T12:41:14.273Z,26.73
2022-09-29T12:43:50.159Z,26.70
2022-09-29T12:46:26.503Z,26.76
2022-09-29T12:49:00.021Z,26.80
2022-09-29T12:51:33.990Z,26.85
2022-09-29T12:54:14.427Z,26.66
2022-09-29T12:56:47.024Z,26.63
2022-09-29T12:59:23.607Z,26.52
2022-09-29T13:01:56.627Z,26.41
2022-09-29T13:05:01.346Z,26.37
2022-09-29T13:08:00.017Z,26.12
2022-09-29T13:10:59.684Z,26.24
2022-09-29T13:13:54.935Z,26.04
2022-09-29T13:16:38.430Z,25.97
2022-09-29T13:19:52.486Z,25.93
2022-09-29T13:22:42.774Z,25.58
2022-09-29T13:25:22.772Z,25.46
2022-09-29T13:27:53.776Z,25.52
2022-09-29T13:30:23.822Z,25.39
2022-09-29T13:33:03.017Z,25.30
2022-09-29T13:35:40.081Z,25.02
2022-09-29T13:38:09.783Z,24.92
2022-09-29T13:40:37.733Z,25.00
2022-09-29T13:43:07.028Z,24.92
2022-09-29T13:45:41.409Z,24.85
2022-09-29T13:48:50.670Z,24.89
2022-09-29T13:51:29.204Z,24.78
2022-09-29T13:54:35.180Z,25.00
2022-09-29T13:57:09.082Z,25.34
2022-09-29T13:59:41.225Z,25.46
2022-09-29T14:02:27.195Z,25.50
2022-09-29T14:04:56.354Z,25.71
2022-09-29T14:07:46.218Z,25.68
2022-09-29T14:10:25.789Z,25.90
2022-09-29T14:12:59.473Z,25.88
2022-09-29T14:15:33.876Z,25.81
2022-09-29T14:18:07.458Z,25.59
2022-09-29T14:20:37.341Z,25.34
2022-09-29T14:23:07.021Z,25.34
2022-09-29T14:25:54.402Z,25.12
2022-09-29T14:28:31.672Z,24.85
2022-09-29T14:31:03.054Z,24.83
2022-09-29T14:33:37.962Z,24.71
2022-09-29T14:36:09.151Z,24.35
2022-09-29T14:38:42.219Z,24.25
2022-09-29T14:41:25.079Z,24.20
2022-09-29T14:43:56.923Z,24.12
2022-09-29T14:46:58.769Z,24.00
2022-09-29T14:50:19.098Z,24.08
2022-09-29T14:53:11.910Z,23.92
2022-09-29T14:55:50.312Z,23.90
2022-09-29T14:58:31.283Z,24.04
2022-09-29T15:01:10.719Z,23.95
2022-09-29T15:03:47.285Z,23.88
2022-09-29T15:06:17.186Z,23.76
2022-09-29T15:08:54.311Z,23.57
2022-09-29T15:11:26.648Z,23.47
2022-09-29T15:13:58.903Z,23.44
2022-09-29T15:16:35.507Z,23.36
2022-09-29T15:19:22.128Z,23.21
2022-09-29T15:21:59.341Z,23.29
2022-09-29T15:24:52.265Z,23.19
2022-09-29T15:27:21.875Z,23.17
2022-09-29T15:29:55.030Z,23.00
2022-09-29T15:32:25.575Z,23.05
2022-09-29T15:35:02.489Z,22.92
2022-09-29T15:38:16.319Z,23.05
2022-09-29T15:40:46.075Z,22.98
2022-09-29T15:43:24.088Z,22.97
2022-09-29T15:45:58.842Z,22.97
2022-09-29T15:48:27.510Z,22.85
2022-09-29T15:50:58.486Z,22.77
2022-09-29T15:53:27.718Z,22.67
2022-09-29T15:55:56.367Z,22.54
2022-09-29T15:58:44.159Z,22.47
2022-09-29T16:01:17.629Z,22.42
2022-09-29T16:03:50.882Z,22.40
2022-09-29T16:06:26.448Z,22.34
2022-09-29T16:08:58.600Z,22.34
2022-09-29T16:11:29.089Z,22.36
2022-09-29T16:14:02.869Z,22.25
2022-09-29T16:16:35.693Z,22.20
2022-09-29T16:19:10.705Z,22.13
2022-09-29T16:21:42.266Z,22.08
2022-09-29T16:24:19.214Z,21.96
2022-09-29T16:26:49.532Z,21.89
2022-09-29T16:29:32.678Z,21.84
2022-09-29T16:32:03.191Z,21.77
2022-09-29T16:34:33.928Z,21.67
2022-09-29T16:37:05.233Z,21.58
2022-09-29T16:39:35.340Z,21.52
2022-09-29T16:42:05.730Z,21.44
2022-09-29T16:44:36.640Z,21.38
2022-09-29T16:47:16.085Z,21.23
2022-09-29T16:49:48.564Z,21.17
2022-09-29T16:52:23.606Z,21.03
2022-09-29T16:54:52.438Z,20.96
2022-09-29T16:57:25.513Z,20.87
2022-09-29T16:59:55.435Z,20.63
2022-09-29T17:02:24.093Z,20.60
2022-09-29T17:04:52.126Z,20.53
2022-09-29T17:07:23.833Z,20.39
2022-09-29T17:09:55.142Z,20.24
2022-09-29T17:12:24.363Z,20.24
2022-09-29T17:14:52.350Z,20.17
2022-09-29T17:17:23.046Z,20.08
2022-09-29T17:19:51.776Z,20.02
2022-09-29T17:22:28.514Z,19.97
2022-09-29T17:24:56.596Z,20.00
2022-09-29T17:27:41.938Z,19.99
2022-09-29T17:30:11.337Z,19.96
2022-09-29T17:32:42.314Z,19.85
2022-09-29T17:35:12.822Z,19.86
2022-09-29T17:37:42.144Z,19.81
2022-09-29T17:40:19.750Z,19.66
2022-09-29T17:42:47.873Z,19.64
2022-09-29T17:45:17.051Z,19.63
2022-09-29T17:47:45.382Z,19.61
2022-09-29T17:50:21.687Z,19.53
2022-09-29T17:52:51.141Z,19.48
2022-09-29T17:55:19.364Z,19.38
2022-09-29T17:57:49.644Z,19.32
2022-09-29T18:00:21.771Z,19.27
2022-09-29T18:02:51.079Z,19.29
2022-09-29T18:05:22.511Z,19.24
2022-09-29T18:07:52.286Z,19.25
2022-09-29T18:10:26.863Z,19.22
2022-09-29T18:12:54.887Z,19.17
2022-09-29T18:15:23.262Z,19.10
2022-09-29T18:17:51.180Z,19.04
2022-09-29T18:20:22.015Z,19.00
2022-09-29T18:22:51.344Z,19.00
2022-09-29T18:25:20.563Z,18.96
2022-09-29T18:27:49.589Z,18.92
2022-09-29T18:30:20.758Z,18.89
2022-09-29T18:32:50.698Z,18.84
2022-09-29T18:35:21.021Z,18.76
2022-09-29T18:37:49.166Z,18.71
2022-09-29T18:40:19.496Z,18.70
2022-09-29T18:42:52.111Z,18.64
2022-09-29T18:45:23.003Z,18.57
2022-09-29T18:47:51.997Z,18.42
2022-09-29T18:50:22.988Z,18.52
2022-09-29T18:52:52.465Z,18.35
2022-09-29T18:55:24.343Z,18.44
2022-09-29T18:57:52.455Z,18.41
2022-09-29T19:00:22.267Z,18.40
2022-09-29T19:02:51.582Z,18.39
2022-09-29T19:05:23.691Z,18.36
2022-09-29T19:07:54.601Z,18.39
2022-09-29T19:10:24.392Z,18.37
2022-09-29T19:12:52.489Z,18.32
2022-09-29T19:15:22.035Z,18.27
2022-09-29T19:17:51.361Z,18.29
2022-09-29T19:20:19.523Z,18.26
2022-09-29T19:22:47.450Z,18.25
2022-09-29T19:25:17.730Z,18.21
2022-09-29T19:27:47.968Z,18.17
2022-09-29T19:30:17.607Z,18.10
2022-09-29T19:32:46.042Z,18.09
2022-09-29T19:35:16.642Z,18.02
2022-09-29T19:37:44.939Z,18.06
2022-09-29T19:40:17.485Z,18.06
2022-09-29T19:42:46.858Z,18.03
2022-09-29T19:45:14.994Z,18.04
2022-09-29T19:47:43.150Z,18.02
2022-09-29T19:50:28.865Z,18.00
2022-09-29T19:52:57.567Z,18.00
2022-09-29T19:55:25.974Z,17.96
2022-09-29T19:57:55.282Z,17.87
2022-09-29T20:00:23.451Z,17.97
2022-09-29T20:02:52.601Z,17.97
2022-09-29T20:05:20.619Z,17.81
2022-09-29T20:07:48.548Z,17.90
2022-09-29T20:10:17.657Z,17.95
2022-09-29T20:12:46.655Z,17.95
2022-09-29T20:15:15.962Z,18.00
2022-09-29T20:17:44.836Z,18.01
2022-09-29T20:20:13.085Z,18.01
2022-09-29T20:22:41.027Z,17.98
2022-09-29T20:25:11.054Z,17.86
2022-09-29T20:27:39.920Z,17.88
2022-09-29T20:30:09.651Z,17.91
2022-09-29T20:32:38.975Z,17.88
2022-09-29T20:35:07.461Z,17.88
2022-09-29T20:37:35.930Z,17.88
2022-09-29T20:40:04.021Z,17.85
2022-09-29T20:42:38.436Z,17.77
2022-09-29T20:45:07.967Z,17.79
2022-09-29T20:47:37.189Z,17.81
2022-09-29T20:50:07.201Z,17.84
2022-09-29T20:52:35.133Z,17.85
2022-09-29T20:55:03.137Z,17.83
2022-09-29T20:57:32.691Z,17.73
2022-09-29T21:00:00.614Z,17.65
2022-09-29T21:02:29.546Z,17.74
2022-09-29T21:04:57.522Z,17.83
2022-09-29T21:07:38.770Z,17.85
2022-09-29T21:10:08.424Z,17.85
2022-09-29T21:12:36.321Z,17.85
2022-09-29T21:15:04.966Z,17.76
2022-09-29T21:17:32.925Z,17.82
2022-09-29T21:20:00.853Z,17.87
2022-09-29T21:22:30.171Z,17.88
2022-09-29T21:24:58.071Z,17.92
2022-09-29T21:27:26.082Z,17.88
2022-09-29T21:29:54.622Z,17.92
2022-09-29T21:32:22.561Z,17.87
2022-09-29T21:34:50.472Z,17.81
2022-09-29T21:37:18.401Z,17.83
2022-09-29T21:39:48.802Z,17.91
2022-09-29T21:42:16.710Z,17.92
2022-09-29T21:44:45.301Z,17.91
2022-09-29T21:47:13.584Z,17.99
2022-09-29T21:49:42.967Z,17.98
2022-09-29T21:52:10.993Z,17.89
2022-09-29T21:54:38.899Z,17.88
2022-09-29T21:57:10.099Z,17.98
2022-09-29T21:59:38.018Z,17.90
2022-09-29T22:02:06.000Z,17.97
2022-09-29T22:04:33.957Z,17.85
2022-09-29T22:07:01.861Z,17.99
2022-09-29T22:09:31.137Z,18.10
2022-09-29T22:11:59.321Z,18.12
2022-09-29T22:14:28.772Z,18.16
2022-09-29T22:16:56.695Z,18.18
2022-09-29T22:19:25.317Z,18.18
2022-09-29T22:21:53.990Z,18.19
2022-09-29T22:24:22.005Z,18.19
2022-09-29T22:26:49.924Z,18.21
2022-09-29T22:29:17.850Z,18.21
2022-09-29T22:31:47.432Z,18.15
2022-09-29T22:34:15.504Z,18.04
2022-09-29T22:36:43.492Z,17.96
2022-09-29T22:39:11.777Z,17.95
2022-09-29T22:41:41.219Z,17.98
2022-09-29T22:44:09.366Z,18.05
2022-09-29T22:46:37.577Z,18.04
2022-09-29T22:49:07.029Z,17.83
2022-09-29T22:51:34.971Z,17.78
2022-09-29T22:54:03.032Z,17.74
2022-09-29T22:56:30.925Z,17.75
2022-09-29T22:59:02.106Z,17.83
2022-09-29T23:01:30.806Z,17.71
2022-09-29T23:03:58.868Z,17.72
2022-09-29T23:06:28.209Z,17.66
2022-09-29T23:08:56.655Z,17.56
2022-09-29T23:11:24.633Z,17.62
2022-09-29T23:13:53.903Z,17.67
2022-09-29T23:16:22.004Z,17.61
2022-09-29T23:18:55.185Z,17.49
2022-09-29T23:21:24.337Z,17.30
2022-09-29T23:23:56.399Z,17.11
2022-09-29T23:26:24.989Z,17.04
2022-09-29T23:28:53.269Z,17.01
2022-09-29T23:31:21.327Z,17.16
2022-09-29T23:33:53.203Z,17.34
2022-09-29T23:36:21.314Z,17.45
2022-09-29T23:39:06.670Z,17.54
2022-09-29T23:41:36.379Z,17.48
2022-09-29T23:44:06.161Z,17.58
2022-09-29T23:46:36.303Z,17.63
2022-09-29T23:49:09.546Z,17.61
2022-09-29T23:51:39.494Z,17.68
2022-09-29T23:54:08.336Z,17.70
2022-09-29T23:56:37.789Z,17.63
2022-09-29T23:59:06.528Z,17.65
